Time;durP1;ratioP1;P1;durP2;ratioP2;P2;SDS_P1;SDS_P2;PMS_P1;PMS_P2;Temp;Humidity;BMP_temperature;BMP_pressure;BME280_temperature;BME280_humidity;BME280_pressure;Samples;Min_cycle;Max_cycle;Signal;HPM_P1;HPM_P2
2021/05/15 00:01:30;;;;;;;;;;;10.50;99.90;;;;;;8361698;28;19945;-67
2021/05/15 00:05:31;;;;;;;;;;;10.50;99.90;;;;;;8342896;28;19923;-67
2021/05/15 00:09:31;;;;;;;;;;;10.50;99.90;;;;;;8361196;28;19913;-67
2021/05/15 00:13:32;;;;;;;;;;;10.40;99.90;;;;;;8360804;28;20011;-66
2021/05/15 00:17:33;;;;;;;;;;;10.40;99.90;;;;;;8360862;28;20358;-67
2021/05/15 00:21:34;;;;;;;;;;;10.30;99.90;;;;;;8360899;28;19977;-66
2021/05/15 00:25:34;;;;;;;;;;;10.20;99.90;;;;;;8360231;28;19909;-66
2021/05/15 00:29:34;;;;;;;;;;;10.10;99.90;;;;;;8360308;28;19948;-66
2021/05/15 00:33:35;;;;;;;;;;;10.10;99.90;;;;;;8358638;28;19908;-66
2021/05/15 00:37:36;;;;;;;;;;;10.10;99.90;;;;;;8326099;28;19968;-67
2021/05/15 00:41:37;;;;;;;;;;;10.00;99.90;;;;;;8327121;28;19909;-67
2021/05/15 00:45:38;;;;;;;;;;;10.00;99.90;;;;;;8325960;28;19957;-67
2021/05/15 00:49:39;;;;;;;;;;;10.00;99.90;;;;;;8325741;28;19916;-67
2021/05/15 00:53:39;;;;;;;;;;;10.00;99.90;;;;;;8326596;28;19936;-66
2021/05/15 00:57:41;;;;;;;;;;;10.00;99.90;;;;;;8326711;28;19917;-67
2021/05/15 01:01:41;;;;;;;;;;;10.00;99.90;;;;;;8326651;28;19955;-67
2021/05/15 01:05:42;;;;;;;;;;;9.90;99.90;;;;;;8352565;28;20403;-67
2021/05/15 01:09:42;;;;;;;;;;;9.90;99.90;;;;;;8359382;28;19909;-67
2021/05/15 01:13:57;;;;;;;;;;;9.80;99.90;;;;;;8341180;28;19928;-67
2021/05/15 01:17:58;;;;;;;;;;;9.70;99.90;;;;;;8359249;28;19924;-66
2021/05/15 01:21:58;;;;;;;;;;;9.70;99.90;;;;;;8359191;28;20545;-66
2021/05/15 01:25:59;;;;;;;;;;;9.70;99.90;;;;;;8358669;28;19955;-67
2021/05/15 01:29:59;;;;;;;;;;;9.60;99.90;;;;;;8358807;28;19913;-67
2021/05/15 01:34:00;;;;;;;;;;;9.70;99.90;;;;;;8358304;28;19913;-67
2021/05/15 01:38:00;;;;;;;;;;;9.80;99.90;;;;;;8341046;28;20367;-67
2021/05/15 01:42:01;;;;;;;;;;;9.80;99.90;;;;;;8358999;28;19909;-66
2021/05/15 01:46:02;;;;;;;;;;;9.80;99.90;;;;;;8358616;28;20406;-67
2021/05/15 01:50:03;;;;;;;;;;;9.80;99.90;;;;;;8358492;28;20295;-67
2021/05/15 01:54:04;;;;;;;;;;;9.70;99.90;;;;;;8358620;28;19909;-67
2021/05/15 01:58:04;;;;;;;;;;;9.60;99.90;;;;;;8362669;28;20147;-66
2021/05/15 02:02:05;;;;;;;;;;;9.60;99.90;;;;;;8365705;28;19999;-66
2021/05/15 02:06:05;;;;;;;;;;;9.50;99.90;;;;;;8364912;28;19927;-66
2021/05/15 02:10:06;;;;;;;;;;;9.50;99.90;;;;;;8365374;28;19909;-66
2021/05/15 02:14:07;;;;;;;;;;;9.40;99.90;;;;;;8364945;28;19912;-66
2021/05/15 02:18:08;;;;;;;;;;;9.50;99.90;;;;;;8364895;28;19913;-66
2021/05/15 02:22:08;;;;;;;;;;;9.40;99.90;;;;;;8364531;28;20761;-66
2021/05/15 02:26:09;;;;;;;;;;;9.50;99.90;;;;;;8364428;28;19909;-66
2021/05/15 02:30:10;;;;;;;;;;;9.40;99.90;;;;;;8364331;28;19956;-66
2021/05/15 02:34:10;;;;;;;;;;;9.30;99.90;;;;;;8363459;28;19932;-66
2021/05/15 02:38:12;;;;;;;;;;;9.30;99.90;;;;;;8364080;28;19917;-67
2021/05/15 02:42:13;;;;;;;;;;;9.30;99.90;;;;;;8363723;28;19916;-67
2021/05/15 02:46:13;;;;;;;;;;;9.20;99.90;;;;;;8363182;28;19909;-67
2021/05/15 02:50:14;;;;;;;;;;;9.20;99.90;;;;;;8363606;28;19920;-66
2021/05/15 02:54:15;;;;;;;;;;;9.10;99.90;;;;;;8363233;28;20302;-67
2021/05/15 02:58:16;;;;;;;;;;;9.00;99.90;;;;;;8363533;28;19913;-66
2021/05/15 03:02:17;;;;;;;;;;;8.90;99.90;;;;;;8363166;28;19915;-66
2021/05/15 03:06:17;;;;;;;;;;;8.90;99.90;;;;;;8362778;28;19928;-66
2021/05/15 03:10:19;;;;;;;;;;;8.90;99.90;;;;;;8344184;28;20371;-66
2021/05/15 03:14:20;;;;;;;;;;;8.90;99.90;;;;;;8362643;28;19916;-66
2021/05/15 03:18:20;;;;;;;;;;;8.80;99.90;;;;;;8362812;28;19913;-66
2021/05/15 03:22:21;;;;;;;;;;;8.80;99.90;;;;;;8362527;28;20525;-66
2021/05/15 03:26:22;;;;;;;;;;;8.70;99.90;;;;;;8344605;28;19909;-66
2021/05/15 03:30:22;;;;;;;;;;;8.60;99.90;;;;;;8362115;28;19959;-66
2021/05/15 03:34:23;;;;;;;;;;;8.60;99.90;;;;;;8361632;28;19923;-66
2021/05/15 03:38:23;;;;;;;;;;;8.60;99.90;;;;;;8362423;28;19935;-66
2021/05/15 03:42:25;;;;;;;;;;;8.60;99.90;;;;;;8362072;28;19916;-66
2021/05/15 03:46:26;;;;;;;;;;;8.50;99.90;;;;;;8343964;28;20093;-66
2021/05/15 03:50:27;;;;;;;;;;;8.50;99.90;;;;;;8362126;28;19998;-66
2021/05/15 03:54:27;;;;;;;;;;;8.50;99.90;;;;;;8361691;28;19916;-66
2021/05/15 03:58:28;;;;;;;;;;;8.50;99.90;;;;;;8361816;28;19916;-66
2021/05/15 04:02:28;;;;;;;;;;;8.50;99.90;;;;;;8361613;28;19999;-66
2021/05/15 04:06:30;;;;;;;;;;;8.40;99.90;;;;;;8361331;28;20452;-66
2021/05/15 04:10:30;;;;;;;;;;;8.40;99.90;;;;;;8361533;28;19909;-66
2021/05/15 04:14:36;;;;;;;;;;;8.50;99.90;;;;;;8361136;28;19916;-67
2021/05/15 04:18:37;;;;;;;;;;;8.50;99.90;;;;;;8361306;28;19944;-66
2021/05/15 04:22:37;;;;;;;;;;;8.60;99.90;;;;;;8361014;28;19915;-66
2021/05/15 04:26:39;;;;;;;;;;;8.60;99.90;;;;;;8360595;28;19913;-67
2021/05/15 04:30:39;;;;;;;;;;;8.60;99.90;;;;;;8342415;28;19961;-66
2021/05/15 04:34:40;;;;;;;;;;;8.60;99.90;;;;;;8359828;28;20275;-67
2021/05/15 04:38:40;;;;;;;;;;;8.50;99.90;;;;;;8360414;28;19920;-66
2021/05/15 04:42:41;;;;;;;;;;;8.50;99.90;;;;;;8360007;28;19909;-67
2021/05/15 04:46:42;;;;;;;;;;;8.40;99.90;;;;;;8358049;28;19908;-66
2021/05/15 04:50:42;;;;;;;;;;;8.40;99.90;;;;;;8326965;28;20284;-67
2021/05/15 04:54:42;;;;;;;;;;;8.40;99.90;;;;;;8326443;28;19909;-67
2021/05/15 04:58:44;;;;;;;;;;;8.30;99.90;;;;;;8329852;28;20224;-66
2021/05/15 05:02:44;;;;;;;;;;;8.40;99.90;;;;;;8357673;28;19998;-67
2021/05/15 05:06:45;;;;;;;;;;;8.50;99.90;;;;;;8357204;28;20015;-67
2021/05/15 05:10:45;;;;;;;;;;;8.80;99.90;;;;;;8357837;28;19917;-67
2021/05/15 05:14:46;;;;;;;;;;;9.20;99.90;;;;;;8357632;28;20003;-66
2021/05/15 05:18:46;;;;;;;;;;;9.70;99.90;;;;;;8357046;28;19921;-67
2021/05/15 05:22:47;;;;;;;;;;;10.00;99.90;;;;;;8358544;28;20391;-66
2021/05/15 05:26:47;;;;;;;;;;;10.20;99.90;;;;;;8341620;28;19932;-66
2021/05/15 05:30:47;;;;;;;;;;;10.30;99.90;;;;;;8358032;28;19913;-66
2021/05/15 05:34:48;;;;;;;;;;;10.10;99.90;;;;;;8350339;28;19913;-66
2021/05/15 05:38:48;;;;;;;;;;;10.10;99.90;;;;;;8358603;28;19925;-67
2021/05/15 05:42:49;;;;;;;;;;;10.30;99.90;;;;;;8358097;28;19920;-66
2021/05/15 05:46:49;;;;;;;;;;;10.80;99.90;;;;;;8358296;28;19913;-65
2021/05/15 05:50:50;;;;;;;;;;;11.20;99.90;;;;;;8358359;28;19920;-65
2021/05/15 05:54:50;;;;;;;;;;;11.20;99.90;;;;;;8357663;28;19916;-64
2021/05/15 05:58:51;;;;;;;;;;;11.10;99.90;;;;;;8357905;28;19913;-65
2021/05/15 06:02:52;;;;;;;;;;;11.30;99.90;;;;;;8357092;28;19966;-65
2021/05/15 06:06:52;;;;;;;;;;;11.30;99.90;;;;;;8357669;28;20350;-65
2021/05/15 06:10:53;;;;;;;;;;;10.80;99.90;;;;;;8357767;28;19909;-65
2021/05/15 06:14:54;;;;;;;;;;;10.90;99.90;;;;;;8335024;28;19967;-65
2021/05/15 06:18:54;;;;;;;;;;;11.40;99.90;;;;;;8356903;28;19951;-65
2021/05/15 06:22:55;;;;;;;;;;;11.50;99.90;;;;;;8358446;28;20341;-64
2021/05/15 06:26:55;;;;;;;;;;;11.50;99.90;;;;;;8356991;28;20014;-64
2021/05/15 06:30:56;;;;;;;;;;;11.70;99.90;;;;;;8356568;28;20008;-65
2021/05/15 06:34:56;;;;;;;;;;;11.80;99.90;;;;;;8339142;28;19909;-65
2021/05/15 06:38:57;;;;;;;;;;;11.80;99.90;;;;;;8306000;28;20511;-64
2021/05/15 06:42:57;;;;;;;;;;;11.90;99.90;;;;;;8340080;28;19920;-64
2021/05/15 06:46:58;;;;;;;;;;;11.90;99.90;;;;;;8313018;28;19924;-65
2021/05/15 06:50:58;;;;;;;;;;;11.90;99.90;;;;;;8360415;28;19916;-64
2021/05/15 06:54:59;;;;;;;;;;;12.30;99.90;;;;;;8360809;28;20437;-64
2021/05/15 06:58:59;;;;;;;;;;;12.20;99.90;;;;;;8362200;28;20371;-64
2021/05/15 07:03:00;;;;;;;;;;;12.40;99.90;;;;;;8362133;28;19954;-65
2021/05/15 07:07:00;;;;;;;;;;;12.80;99.90;;;;;;8362195;28;19923;-65
2021/05/15 07:11:02;;;;;;;;;;;13.00;99.90;;;;;;8360797;28;20519;-64
2021/05/15 07:15:04;;;;;;;;;;;13.20;99.90;;;;;;8344037;28;20549;-65
2021/05/15 07:19:05;;;;;;;;;;;13.50;99.90;;;;;;8362246;28;19908;-64
2021/05/15 07:23:07;;;;;;;;;;;13.70;99.90;;;;;;8332276;28;19924;-64
2021/05/15 07:27:07;;;;;;;;;;;13.80;99.90;;;;;;8329277;28;19909;-64
2021/05/15 07:31:08;;;;;;;;;;;13.30;99.90;;;;;;8349320;28;19962;-64
2021/05/15 07:35:11;;;;;;;;;;;12.90;99.90;;;;;;8360285;28;20031;-64
2021/05/15 07:39:11;;;;;;;;;;;13.10;99.90;;;;;;8355945;28;19916;-64
2021/05/15 07:43:11;;;;;;;;;;;13.40;99.90;;;;;;8360721;28;20314;-65
2021/05/15 07:47:12;;;;;;;;;;;13.40;99.90;;;;;;8361823;28;20412;-64
2021/05/15 07:51:15;;;;;;;;;;;13.80;99.90;;;;;;8361368;28;19924;-64
2021/05/15 07:55:16;;;;;;;;;;;13.80;99.90;;;;;;8320872;28;19952;-64
2021/05/15 07:59:16;;;;;;;;;;;13.60;99.90;;;;;;8328003;28;19913;-65
2021/05/15 08:03:17;;;;;;;;;;;13.50;99.90;;;;;;8331921;28;20424;-65
2021/05/15 08:07:17;;;;;;;;;;;13.70;99.90;;;;;;8332690;28;19909;-64
2021/05/15 08:11:18;;;;;;;;;;;14.10;99.90;;;;;;8338491;28;19917;-65
2021/05/15 08:15:19;;;;;;;;;;;14.60;99.90;;;;;;8358310;28;19913;-64
2021/05/15 08:19:19;;;;;;;;;;;15.30;99.90;;;;;;8360670;28;19912;-65
2021/05/15 08:23:20;;;;;;;;;;;15.50;99.90;;;;;;8341096;28;19913;-65
2021/05/15 08:27:22;;;;;;;;;;;15.20;99.90;;;;;;8327394;28;19916;-65
2021/05/15 08:31:22;;;;;;;;;;;14.70;99.90;;;;;;8345599;28;19959;-65
2021/05/15 08:35:24;;;;;;;;;;;14.50;99.90;;;;;;8359236;28;19917;-65
2021/05/15 08:39:24;;;;;;;;;;;14.60;99.90;;;;;;8359583;28;20517;-65
2021/05/15 08:43:26;;;;;;;;;;;14.70;99.90;;;;;;8359732;28;19955;-64
2021/05/15 08:47:29;;;;;;;;;;;14.70;99.90;;;;;;8341409;28;19955;-65
2021/05/15 08:51:30;;;;;;;;;;;15.30;99.90;;;;;;8340623;28;19916;-65
2021/05/15 08:55:31;;;;;;;;;;;15.50;99.90;;;;;;8357913;28;19916;-64
2021/05/15 08:59:33;;;;;;;;;;;14.80;99.90;;;;;;8358790;28;19912;-65
2021/05/15 09:03:33;;;;;;;;;;;14.90;99.90;;;;;;8358096;28;19991;-65
2021/05/15 09:07:34;;;;;;;;;;;15.30;99.90;;;;;;8357672;28;19913;-65
2021/05/15 09:11:35;;;;;;;;;;;15.40;99.90;;;;;;8358260;28;19913;-64
2021/05/15 09:15:58;;;;;;;;;;;15.00;99.90;;;;;;8356959;28;19917;-65
2021/05/15 09:19:59;;;;;;;;;;;15.40;99.90;;;;;;8356739;28;20005;-65
2021/05/15 09:24:05;;;;;;;;;;;15.60;99.90;;;;;;8357944;28;19920;-65
2021/05/15 09:28:06;;;;;;;;;;;15.40;99.90;;;;;;8358074;28;20322;-65
2021/05/15 09:32:06;;;;;;;;;;;15.60;99.90;;;;;;8356455;28;20062;-65
2021/05/15 09:36:14;;;;;;;;;;;15.90;99.90;;;;;;8356770;28;19917;-65
2021/05/15 09:40:19;;;;;;;;;;;16.20;99.90;;;;;;8358304;28;20327;-65
2021/05/15 09:44:21;;;;;;;;;;;15.50;99.90;;;;;;8357300;28;19913;-65
2021/05/15 09:48:37;;;;;;;;;;;15.20;99.90;;;;;;8357757;28;20012;-65
2021/05/15 09:52:38;;;;;;;;;;;15.80;99.90;;;;;;8356694;28;19913;-65
2021/05/15 09:56:38;;;;;;;;;;;16.20;99.90;;;;;;8357553;28;19917;-65
2021/05/15 10:00:39;;;;;;;;;;;16.00;99.90;;;;;;8357198;28;19999;-65
2021/05/15 10:04:40;;;;;;;;;;;15.90;99.90;;;;;;8356636;28;20374;-65
2021/05/15 10:08:41;;;;;;;;;;;15.90;99.90;;;;;;8357157;28;19952;-65
2021/05/15 10:12:42;;;;;;;;;;;16.10;99.90;;;;;;8357828;28;20283;-65
2021/05/15 10:16:43;;;;;;;;;;;16.40;98.80;;;;;;8354070;28;19913;-65
2021/05/15 10:20:44;;;;;;;;;;;16.30;99.70;;;;;;8361303;28;19951;-65
2021/05/15 10:24:46;;;;;;;;;;;16.30;96.10;;;;;;8355263;28;19917;-65
2021/05/15 10:29:03;;;;;;;;;;;16.50;97.10;;;;;;8363775;28;19951;-65
2021/05/15 10:33:07;;;;;;;;;;;16.00;98.10;;;;;;8361832;28;19919;-65
2021/05/15 10:37:34;;;;;;;;;;;16.90;96.40;;;;;;8363087;28;20364;-65
2021/05/15 10:41:42;;;;;;;;;;;17.30;97.50;;;;;;8358228;28;19960;-65
2021/05/15 10:45:43;;;;;;;;;;;17.50;95.50;;;;;;8362827;28;20387;-65
2021/05/15 10:49:47;;;;;;;;;;;17.80;93.00;;;;;;8363004;28;19920;-65
2021/05/15 10:53:52;;;;;;;;;;;17.60;93.00;;;;;;8362630;28;19913;-65
2021/05/15 10:57:53;;;;;;;;;;;17.90;93.20;;;;;;8361524;28;20000;-65
2021/05/15 11:01:58;;;;;;;;;;;17.10;91.60;;;;;;8358994;28;19917;-65
2021/05/15 11:05:58;;;;;;;;;;;16.70;91.20;;;;;;8361517;28;19923;-65
2021/05/15 11:09:59;;;;;;;;;;;17.80;91.70;;;;;;8362421;28;19913;-65
2021/05/15 11:14:00;;;;;;;;;;;19.00;87.80;;;;;;8345053;28;20459;-65
2021/05/15 11:18:02;;;;;;;;;;;19.00;86.20;;;;;;8362405;28;19916;-66
2021/05/15 11:22:03;;;;;;;;;;;20.00;81.70;;;;;;8361496;28;19916;-65
2021/05/15 11:26:05;;;;;;;;;;;20.20;78.60;;;;;;8361909;28;19989;-65
2021/05/15 11:30:14;;;;;;;;;;;20.70;75.30;;;;;;8361000;28;19924;-65
2021/05/15 11:34:17;;;;;;;;;;;20.00;76.30;;;;;;8355596;28;19924;-65
2021/05/15 11:38:19;;;;;;;;;;;20.10;72.90;;;;;;8361710;28;19920;-66
2021/05/15 11:42:20;;;;;;;;;;;20.30;73.50;;;;;;8358755;28;19912;-65
2021/05/15 11:46:24;;;;;;;;;;;20.80;72.60;;;;;;8361039;28;19913;-65
2021/05/15 11:50:24;;;;;;;;;;;21.80;62.60;;;;;;8358530;28;20299;-66
2021/05/15 11:54:25;;;;;;;;;;;23.80;62.70;;;;;;8360600;28;19920;-66
2021/05/15 11:58:26;;;;;;;;;;;24.30;56.60;;;;;;8359783;28;19919;-65
2021/05/15 12:02:26;;;;;;;;;;;23.40;54.20;;;;;;8358936;28;19913;-65
2021/05/15 12:06:27;;;;;;;;;;;22.20;55.60;;;;;;8360342;28;19917;-65
2021/05/15 12:10:27;;;;;;;;;;;22.10;55.40;;;;;;8359360;28;19927;-66
2021/05/15 12:14:29;;;;;;;;;;;20.80;56.20;;;;;;8326246;28;19917;-65
2021/05/15 12:18:30;;;;;;;;;;;19.80;59.00;;;;;;8336892;28;19920;-65
2021/05/15 12:22:30;;;;;;;;;;;19.10;59.50;;;;;;8359648;28;20418;-66
2021/05/15 12:26:31;;;;;;;;;;;19.00;62.90;;;;;;8359319;28;20272;-66
2021/05/15 12:30:35;;;;;;;;;;;19.80;64.70;;;;;;8360218;28;19916;-66
2021/05/15 12:34:36;;;;;;;;;;;19.60;63.80;;;;;;8359329;28;19952;-65
2021/05/15 12:38:50;;;;;;;;;;;19.00;59.20;;;;;;8342417;28;20018;-65
2021/05/15 12:42:51;;;;;;;;;;;17.90;65.20;;;;;;8359944;28;19940;-66
2021/05/15 12:46:51;;;;;;;;;;;17.80;70.50;;;;;;8359853;28;19908;-65
2021/05/15 12:50:52;;;;;;;;;;;18.70;65.40;;;;;;8359002;28;19920;-65
2021/05/15 12:54:52;;;;;;;;;;;18.50;63.20;;;;;;8359531;28;19917;-65
2021/05/15 12:58:53;;;;;;;;;;;18.50;62.90;;;;;;8359624;28;19956;-65
2021/05/15 13:02:57;;;;;;;;;;;18.20;60.20;;;;;;8358973;28;19912;-65
2021/05/15 13:06:58;;;;;;;;;;;18.40;60.50;;;;;;8359017;28;20524;-65
2021/05/15 13:11:28;;;;;;;;;;;19.10;60.30;;;;;;8359353;28;20124;-66
2021/05/15 13:15:31;;;;;;;;;;;19.10;58.80;;;;;;8345808;28;19917;-65
2021/05/15 13:19:32;;;;;;;;;;;18.90;63.50;;;;;;8359404;28;20375;-65
2021/05/15 13:23:33;;;;;;;;;;;19.00;63.50;;;;;;8358404;28;19917;-65
2021/05/15 13:27:33;;;;;;;;;;;19.00;61.30;;;;;;8359304;28;19916;-66
2021/05/15 13:31:34;;;;;;;;;;;18.90;63.10;;;;;;8355719;28;19916;-65
2021/05/15 13:35:34;;;;;;;;;;;18.50;63.00;;;;;;8335118;28;20380;-65
2021/05/15 13:39:35;;;;;;;;;;;18.30;63.30;;;;;;8328193;28;19943;-66
2021/05/15 13:43:35;;;;;;;;;;;18.10;63.50;;;;;;8358934;28;19909;-65
2021/05/15 13:47:36;;;;;;;;;;;17.80;62.20;;;;;;8330611;28;19913;-65
2021/05/15 13:51:36;;;;;;;;;;;17.50;67.10;;;;;;8344731;28;19913;-66
2021/05/15 13:55:37;;;;;;;;;;;17.60;67.20;;;;;;8364427;28;20553;-65
2021/05/15 13:59:38;;;;;;;;;;;17.50;65.50;;;;;;8365265;28;19909;-65
2021/05/15 14:03:38;;;;;;;;;;;17.70;71.70;;;;;;8356437;28;19923;-65
2021/05/15 14:07:39;;;;;;;;;;;17.80;68.90;;;;;;8363924;28;19913;-66
2021/05/15 14:11:40;;;;;;;;;;;17.70;72.30;;;;;;8363968;28;19908;-65
2021/05/15 14:15:41;;;;;;;;;;;17.50;67.60;;;;;;8363240;28;19919;-65
2021/05/15 14:19:41;;;;;;;;;;;17.40;69.10;;;;;;8363264;28;19962;-65
2021/05/15 14:23:41;;;;;;;;;;;17.50;69.60;;;;;;8336562;28;19913;-65
2021/05/15 14:27:42;;;;;;;;;;;17.00;68.90;;;;;;8345577;28;19932;-65
2021/05/15 14:31:42;;;;;;;;;;;16.90;69.90;;;;;;8345839;28;20322;-65
2021/05/15 14:35:43;;;;;;;;;;;17.20;69.90;;;;;;8353280;28;19938;-65
2021/05/15 14:39:44;;;;;;;;;;;17.00;70.50;;;;;;8356591;28;19990;-65
2021/05/15 14:43:44;;;;;;;;;;;16.70;73.30;;;;;;8361823;28;19916;-65
2021/05/15 14:47:45;;;;;;;;;;;16.60;73.60;;;;;;8362227;28;19912;-65
2021/05/15 14:51:45;;;;;;;;;;;16.50;74.90;;;;;;8361500;28;19917;-65
2021/05/15 14:55:46;;;;;;;;;;;16.30;76.20;;;;;;8362307;28;19923;-65
2021/05/15 14:59:46;;;;;;;;;;;16.10;76.90;;;;;;8362004;28;20410;-65
2021/05/15 15:03:48;;;;;;;;;;;16.10;78.40;;;;;;8354940;28;19913;-65
2021/05/15 15:07:48;;;;;;;;;;;15.80;79.80;;;;;;8329400;28;19917;-66
2021/05/15 15:11:49;;;;;;;;;;;15.50;82.50;;;;;;8337010;28;19940;-66
2021/05/15 15:15:49;;;;;;;;;;;15.40;82.10;;;;;;8353649;28;19921;-66
2021/05/15 15:19:50;;;;;;;;;;;15.50;82.50;;;;;;8300287;28;20688;-66
2021/05/15 15:23:51;;;;;;;;;;;15.30;82.80;;;;;;8245020;28;19921;-66
2021/05/15 15:27:51;;;;;;;;;;;15.30;84.40;;;;;;8326583;28;19912;-66
2021/05/15 15:31:52;;;;;;;;;;;15.20;84.30;;;;;;8359931;28;20423;-67
2021/05/15 15:35:52;;;;;;;;;;;15.30;83.40;;;;;;8338782;28;19916;-67
2021/05/15 15:39:53;;;;;;;;;;;15.20;85.00;;;;;;8322891;28;20256;-66
2021/05/15 15:43:53;;;;;;;;;;;15.40;85.20;;;;;;8325806;28;19959;-67
2021/05/15 15:47:54;;;;;;;;;;;15.40;87.10;;;;;;8337744;28;19921;-67
2021/05/15 15:51:55;;;;;;;;;;;15.20;86.80;;;;;;8350013;28;19917;-66
2021/05/15 15:55:56;;;;;;;;;;;14.80;89.80;;;;;;8352602;28;19924;-67
2021/05/15 15:59:56;;;;;;;;;;;14.40;92.80;;;;;;8335757;28;19924;-67
2021/05/15 16:03:57;;;;;;;;;;;14.00;94.50;;;;;;8352227;28;20298;-66
2021/05/15 16:08:02;;;;;;;;;;;13.60;98.40;;;;;;8361413;28;19934;-67
2021/05/15 16:12:03;;;;;;;;;;;13.50;99.90;;;;;;8360075;28;20371;-67
2021/05/15 16:16:03;;;;;;;;;;;13.40;99.90;;;;;;8356420;28;19949;-67
2021/05/15 16:20:04;;;;;;;;;;;13.10;99.90;;;;;;8342246;28;19962;-67
2021/05/15 16:24:05;;;;;;;;;;;12.60;99.90;;;;;;8353616;28;19912;-67
2021/05/15 16:28:06;;;;;;;;;;;12.40;99.90;;;;;;8336703;28;20326;-66
2021/05/15 16:32:07;;;;;;;;;;;12.00;99.90;;;;;;8347789;28;19916;-67
2021/05/15 16:36:07;;;;;;;;;;;11.50;99.90;;;;;;8349428;28;20390;-66
2021/05/15 16:40:09;;;;;;;;;;;10.90;99.90;;;;;;8343530;28;19917;-66
2021/05/15 16:44:10;;;;;;;;;;;10.60;99.90;;;;;;8342587;28;19952;-67
2021/05/15 16:48:33;;;;;;;;;;;10.40;99.90;;;;;;8343172;28;19917;-67
2021/05/15 16:52:34;;;;;;;;;;;10.20;99.90;;;;;;8341429;28;20066;-67
2021/05/15 16:56:34;;;;;;;;;;;10.10;99.90;;;;;;8348095;28;20482;-67
2021/05/15 17:00:35;;;;;;;;;;;10.20;99.90;;;;;;8341582;28;20042;-67
2021/05/15 17:04:35;;;;;;;;;;;10.00;99.90;;;;;;8328191;28;20029;-66
2021/05/15 17:08:36;;;;;;;;;;;10.00;99.90;;;;;;8343828;28;19936;-67
2021/05/15 17:12:37;;;;;;;;;;;10.10;99.90;;;;;;8344509;28;20008;-67
2021/05/15 17:16:37;;;;;;;;;;;10.10;99.90;;;;;;8343549;28;19943;-67
2021/05/15 17:20:38;;;;;;;;;;;10.20;99.90;;;;;;8337462;28;19920;-67
2021/05/15 17:24:39;;;;;;;;;;;10.00;99.90;;;;;;8339161;28;20066;-66
2021/05/15 17:28:40;;;;;;;;;;;10.10;99.90;;;;;;8331009;28;19912;-66
2021/05/15 17:32:40;;;;;;;;;;;9.90;99.90;;;;;;8316260;28;19967;-67
2021/05/15 17:36:41;;;;;;;;;;;9.90;99.90;;;;;;8321831;28;19921;-67
2021/05/15 17:40:41;;;;;;;;;;;9.80;99.90;;;;;;8338910;28;19924;-66
2021/05/15 17:44:42;;;;;;;;;;;9.70;99.90;;;;;;8338788;28;19921;-66
2021/05/15 17:48:42;;;;;;;;;;;9.60;99.90;;;;;;8336362;28;19967;-66
2021/05/15 17:52:43;;;;;;;;;;;9.50;99.90;;;;;;8342607;28;19917;-66
2021/05/15 17:56:44;;;;;;;;;;;9.40;99.90;;;;;;8326447;28;19921;-66
2021/05/15 18:00:44;;;;;;;;;;;9.30;99.90;;;;;;8330841;28;19935;-65
2021/05/15 18:04:46;;;;;;;;;;;9.30;99.90;;;;;;8339984;28;19917;-65
2021/05/15 18:08:49;;;;;;;;;;;9.10;99.90;;;;;;8342078;28;20302;-65
2021/05/15 18:12:49;;;;;;;;;;;9.10;99.90;;;;;;8334737;28;19921;-65
2021/05/15 18:16:50;;;;;;;;;;;9.00;99.90;;;;;;8343581;28;19924;-65
2021/05/15 18:20:52;;;;;;;;;;;8.80;99.90;;;;;;8351342;28;19959;-64
2021/05/15 18:24:53;;;;;;;;;;;8.70;99.90;;;;;;8337224;28;20701;-65
2021/05/15 18:28:54;;;;;;;;;;;8.60;99.90;;;;;;8333223;28;19917;-65
2021/05/15 18:32:54;;;;;;;;;;;8.50;99.90;;;;;;8336334;28;19917;-67
2021/05/15 18:36:55;;;;;;;;;;;8.40;99.90;;;;;;8311159;28;19931;-66
2021/05/15 18:40:55;;;;;;;;;;;8.40;99.90;;;;;;8326671;28;19913;-66
2021/05/15 18:44:56;;;;;;;;;;;8.40;99.90;;;;;;8327632;28;20327;-66
2021/05/15 18:48:57;;;;;;;;;;;8.40;99.90;;;;;;8331793;28;19963;-67
2021/05/15 18:52:57;;;;;;;;;;;8.40;99.90;;;;;;8338373;28;19953;-66
2021/05/15 18:56:58;;;;;;;;;;;8.30;99.90;;;;;;8332505;28;19944;-67
2021/05/15 19:00:59;;;;;;;;;;;8.30;99.90;;;;;;8354376;28;19927;-73
2021/05/15 19:04:59;;;;;;;;;;;8.40;99.90;;;;;;8339088;28;20023;-73
2021/05/15 19:09:02;;;;;;;;;;;8.40;99.90;;;;;;8351799;28;19939;-72
2021/05/15 19:13:04;;;;;;;;;;;8.30;99.90;;;;;;8326543;28;20391;-75
2021/05/15 19:17:04;;;;;;;;;;;8.40;99.90;;;;;;8348394;28;20434;-69
2021/05/15 19:21:05;;;;;;;;;;;8.50;99.90;;;;;;8337937;28;19921;-68
2021/05/15 19:25:06;;;;;;;;;;;8.50;99.90;;;;;;8340980;28;19913;-68
2021/05/15 19:29:07;;;;;;;;;;;8.60;99.90;;;;;;8341067;28;20006;-68
2021/05/15 19:33:11;;;;;;;;;;;8.60;99.90;;;;;;8327125;28;20521;-68
2021/05/15 19:37:11;;;;;;;;;;;8.60;99.90;;;;;;8348529;28;19936;-68
2021/05/15 19:41:12;;;;;;;;;;;8.60;99.90;;;;;;8342642;28;19920;-68
2021/05/15 19:45:12;;;;;;;;;;;8.60;99.90;;;;;;8348518;28;19919;-68
2021/05/15 19:49:13;;;;;;;;;;;8.60;99.90;;;;;;8321058;28;19964;-68
2021/05/15 19:53:16;;;;;;;;;;;8.70;99.90;;;;;;8342857;28;20011;-68
2021/05/15 19:57:20;;;;;;;;;;;8.60;99.90;;;;;;8346472;28;19921;-68
2021/05/15 20:01:22;;;;;;;;;;;8.60;99.90;;;;;;8343460;28;19924;-68
2021/05/15 20:05:22;;;;;;;;;;;8.70;99.90;;;;;;8354603;28;19920;-68
2021/05/15 20:09:23;;;;;;;;;;;8.60;99.90;;;;;;8356564;28;19919;-68
2021/05/15 20:13:24;;;;;;;;;;;8.60;99.90;;;;;;8356731;28;19928;-68
2021/05/15 20:17:24;;;;;;;;;;;8.70;99.90;;;;;;8356923;28;20552;-68
2021/05/15 20:21:25;;;;;;;;;;;8.70;99.90;;;;;;8356867;28;19954;-68
2021/05/15 20:25:25;;;;;;;;;;;8.70;99.90;;;;;;8356622;28;19997;-69
2021/05/15 20:29:26;;;;;;;;;;;8.80;99.90;;;;;;8337973;28;19913;-68
2021/05/15 20:33:30;;;;;;;;;;;8.80;99.90;;;;;;8335918;28;19920;-68
2021/05/15 20:37:32;;;;;;;;;;;8.80;99.90;;;;;;8355546;28;19924;-68
2021/05/15 20:41:33;;;;;;;;;;;8.70;99.90;;;;;;8355002;28;19917;-68
2021/05/15 20:45:33;;;;;;;;;;;8.70;99.90;;;;;;8354888;28;19964;-68
2021/05/15 20:49:34;;;;;;;;;;;8.70;99.90;;;;;;8351008;28;19966;-68
2021/05/15 20:53:36;;;;;;;;;;;8.60;99.90;;;;;;8321201;28;19917;-68
2021/05/15 20:57:36;;;;;;;;;;;8.60;99.90;;;;;;8320976;28;19924;-68
2021/05/15 21:01:37;;;;;;;;;;;8.50;99.90;;;;;;8342876;28;19936;-68
2021/05/15 21:05:38;;;;;;;;;;;8.50;99.90;;;;;;8348143;28;19927;-68
2021/05/15 21:09:38;;;;;;;;;;;8.50;99.90;;;;;;8327151;28;19912;-68
2021/05/15 21:13:39;;;;;;;;;;;8.50;99.90;;;;;;8349714;28;20413;-68
2021/05/15 21:17:39;;;;;;;;;;;8.50;99.90;;;;;;8337468;28;19956;-69
2021/05/15 21:21:40;;;;;;;;;;;8.50;99.90;;;;;;8349633;28;19970;-68
2021/05/15 21:25:40;;;;;;;;;;;8.50;99.90;;;;;;8330329;28;20341;-68
2021/05/15 21:29:42;;;;;;;;;;;8.50;99.90;;;;;;8345159;28;19913;-68
2021/05/15 21:33:43;;;;;;;;;;;8.50;99.90;;;;;;8357981;28;19951;-68
2021/05/15 21:37:44;;;;;;;;;;;8.40;99.90;;;;;;8358525;28;20398;-68
2021/05/15 21:41:44;;;;;;;;;;;8.40;99.90;;;;;;8358512;28;19909;-68
2021/05/15 21:45:45;;;;;;;;;;;8.30;99.90;;;;;;8358080;28;19909;-68
2021/05/15 21:49:45;;;;;;;;;;;8.30;99.90;;;;;;8358462;28;20038;-68
2021/05/15 21:53:46;;;;;;;;;;;8.20;99.90;;;;;;8336347;28;19908;-68
2021/05/15 21:57:46;;;;;;;;;;;8.20;99.90;;;;;;8340977;28;19920;-68
2021/05/15 22:01:47;;;;;;;;;;;8.10;99.90;;;;;;8341702;28;19909;-68
2021/05/15 22:05:48;;;;;;;;;;;8.10;99.90;;;;;;8339488;28;19940;-68
2021/05/15 22:09:48;;;;;;;;;;;8.10;99.90;;;;;;8322722;28;19948;-68
2021/05/15 22:13:49;;;;;;;;;;;8.00;99.90;;;;;;8341974;28;19946;-68
2021/05/15 22:17:50;;;;;;;;;;;8.00;99.90;;;;;;8346761;28;20413;-68
2021/05/15 22:21:51;;;;;;;;;;;8.00;99.90;;;;;;8346480;28;19920;-69
2021/05/15 22:25:51;;;;;;;;;;;7.90;99.90;;;;;;8346722;28;19947;-68
2021/05/15 22:29:53;;;;;;;;;;;7.90;99.90;;;;;;8346126;28;21509;-68
2021/05/15 22:33:53;;;;;;;;;;;7.90;99.90;;;;;;8344618;28;19962;-68
2021/05/15 22:37:54;;;;;;;;;;;7.80;99.90;;;;;;8346440;28;19913;-68
2021/05/15 22:41:54;;;;;;;;;;;7.80;99.90;;;;;;8345114;28;20567;-68
2021/05/15 22:45:56;;;;;;;;;;;7.70;99.90;;;;;;8345195;28;19962;-68
2021/05/15 22:49:57;;;;;;;;;;;7.70;99.90;;;;;;8349212;28;19934;-68
2021/05/15 22:53:59;;;;;;;;;;;7.70;99.90;;;;;;8348287;28;19909;-68
2021/05/15 22:57:59;;;;;;;;;;;7.80;99.90;;;;;;8346702;28;19924;-68
2021/05/15 23:02:01;;;;;;;;;;;7.90;99.90;;;;;;8327372;28;19913;-68
2021/05/15 23:06:02;;;;;;;;;;;7.80;99.90;;;;;;8345998;28;19962;-68
2021/05/15 23:10:03;;;;;;;;;;;7.80;99.90;;;;;;8347024;28;19909;-68
2021/05/15 23:14:04;;;;;;;;;;;7.80;99.90;;;;;;8347418;28;19917;-68
2021/05/15 23:18:04;;;;;;;;;;;7.80;99.90;;;;;;8344508;28;19913;-68
2021/05/15 23:22:06;;;;;;;;;;;7.80;99.90;;;;;;8342552;28;19916;-67
2021/05/15 23:26:06;;;;;;;;;;;7.80;99.90;;;;;;8326588;28;19999;-68
2021/05/15 23:30:08;;;;;;;;;;;7.80;99.90;;;;;;8346075;28;19916;-68
2021/05/15 23:34:09;;;;;;;;;;;7.80;99.90;;;;;;8345464;28;20418;-68